Time;durP1;ratioP1;P1;durP2;ratioP2;P2;SDS_P1;SDS_P2;PMS_P1;PMS_P2;Temp;Humidity;BMP_temperature;BMP_pressure;BME280_temperature;BME280_humidity;BME280_pressure;Samples;Min_cycle;Max_cycle;Signal;HPM_P1;HPM_P2
2023/03/29 00:07:22;;;;;;;1999.90;999.90;;;;;;;;;;6181765;23;20210;-73
2023/03/29 00:10:08;;;;;;;1999.90;999.90;;;;;;;;;;6183168;23;20174;-72
2023/03/29 00:12:53;;;;;;;1999.90;999.90;;;;;;;;;;6184585;23;20169;-73
2023/03/29 00:15:39;;;;;;;1999.90;999.90;;;;;;;;;;6183364;23;20380;-72
2023/03/29 00:18:24;;;;;;;1999.90;999.90;;;;;;;;;;6154583;23;20169;-72
2023/03/29 00:21:09;;;;;;;1999.90;999.90;;;;;;;;;;6154521;23;20172;-72
2023/03/29 00:23:55;;;;;;;1999.90;999.90;;;;;;;;;;6154806;23;20190;-72
2023/03/29 00:26:40;;;;;;;1999.90;999.90;;;;;;;;;;6154420;23;20208;-72
2023/03/29 00:29:25;;;;;;;1999.90;999.90;;;;;;;;;;6154694;23;20222;-72
2023/03/29 00:32:10;;;;;;;1999.90;999.90;;;;;;;;;;6154482;23;20257;-72
2023/03/29 00:34:55;;;;;;;1999.90;999.90;;;;;;;;;;6154650;23;20177;-71
2023/03/29 00:37:41;;;;;;;1999.90;999.90;;;;;;;;;;6154499;23;20678;-71
2023/03/29 00:40:27;;;;;;;1999.90;999.90;;;;;;;;;;6154457;23;20511;-69
2023/03/29 00:43:13;;;;;;;1999.90;999.90;;;;;;;;;;6154654;23;20166;-72
2023/03/29 00:45:58;;;;;;;1999.90;999.90;;;;;;;;;;6154891;23;20222;-72
2023/03/29 00:48:43;;;;;;;1999.90;999.90;;;;;;;;;;6153317;23;20406;-72
2023/03/29 00:51:30;;;;;;;1999.90;999.90;;;;;;;;;;6154277;23;20669;-72
2023/03/29 00:54:17;;;;;;;1999.90;999.90;;;;;;;;;;6154449;23;20173;-72
2023/03/29 00:57:05;;;;;;;1999.90;999.90;;;;;;;;;;6154191;23;20208;-72
2023/03/29 00:59:51;;;;;;;1999.90;999.90;;;;;;;;;;6154515;23;20635;-69
2023/03/29 01:02:38;;;;;;;1999.90;999.90;;;;;;;;;;6152708;23;20851;-72
2023/03/29 01:05:28;;;;;;;1999.90;999.90;;;;;;;;;;6128342;23;20616;-73
2023/03/29 01:08:17;;;;;;;1999.90;999.90;;;;;;;;;;6154155;23;20525;-72
2023/03/29 01:11:04;;;;;;;1999.90;999.90;;;;;;;;;;6154128;23;20245;-72
2023/03/29 01:13:52;;;;;;;1999.90;999.90;;;;;;;;;;6154461;23;20171;-72
2023/03/29 01:16:38;;;;;;;1999.90;999.90;;;;;;;;;;6154243;23;20218;-72
2023/03/29 01:19:25;;;;;;;1999.90;999.90;;;;;;;;;;6154267;23;20242;-72
2023/03/29 01:22:13;;;;;;;1999.90;999.90;;;;;;;;;;6154243;23;20675;-72
2023/03/29 01:25:10;;;;;;;1999.90;999.90;;;;;;;;;;6154028;23;20189;-72
2023/03/29 01:27:57;;;;;;;1999.90;999.90;;;;;;;;;;6153674;23;20683;-72
2023/03/29 01:30:46;;;;;;;1999.90;999.90;;;;;;;;;;6154088;23;20170;-72
2023/03/29 01:33:33;;;;;;;1999.90;999.90;;;;;;;;;;6152586;23;20430;-71
2023/03/29 01:36:22;;;;;;;1999.90;999.90;;;;;;;;;;6154256;23;20719;-72
2023/03/29 01:39:07;;;;;;;1999.90;999.90;;;;;;;;;;6153734;23;20241;-72
2023/03/29 01:42:01;;;;;;;1999.90;999.90;;;;;;;;;;6154037;23;20167;-72
2023/03/29 01:44:52;;;;;;;1999.90;999.90;;;;;;;;;;6153803;23;20522;-73
2023/03/29 01:47:42;;;;;;;1999.90;999.90;;;;;;;;;;6153981;23;20210;-72
2023/03/29 01:50:32;;;;;;;1999.90;999.90;;;;;;;;;;6153861;23;20532;-72
2023/03/29 01:53:19;;;;;;;1999.90;999.90;;;;;;;;;;6154160;23;20167;-73
2023/03/29 01:56:07;;;;;;;1999.90;999.90;;;;;;;;;;6154080;23;20682;-73
2023/03/29 01:58:53;;;;;;;1999.90;999.90;;;;;;;;;;6153926;23;20626;-72
2023/03/29 02:01:41;;;;;;;1999.90;999.90;;;;;;;;;;6153978;23;20167;-72
2023/03/29 02:04:28;;;;;;;1999.90;999.90;;;;;;;;;;6153945;23;20171;-72
2023/03/29 02:07:15;;;;;;;1999.90;999.90;;;;;;;;;;6153730;23;20213;-72
2023/03/29 02:10:00;;;;;;;1999.90;999.90;;;;;;;;;;6153986;23;20170;-73
2023/03/29 02:12:45;;;;;;;1999.90;999.90;;;;;;;;;;6154165;23;20174;-73
2023/03/29 02:15:30;;;;;;;1999.90;999.90;;;;;;;;;;6154096;23;20170;-73
2023/03/29 02:18:18;;;;;;;1999.90;999.90;;;;;;;;;;6153327;23;20469;-73
2023/03/29 02:21:04;;;;;;;1999.90;999.90;;;;;;;;;;6153777;23;20171;-72
2023/03/29 02:23:49;;;;;;;1999.90;999.90;;;;;;;;;;6153812;23;20219;-72
2023/03/29 02:26:35;;;;;;;1999.90;999.90;;;;;;;;;;6153981;23;20206;-72
2023/03/29 02:29:20;;;;;;;1999.90;999.90;;;;;;;;;;6153849;23;20233;-73
2023/03/29 02:32:07;;;;;;;1999.90;999.90;;;;;;;;;;6152939;23;20517;-72
2023/03/29 02:34:57;;;;;;;1999.90;999.90;;;;;;;;;;6153885;23;20167;-73
2023/03/29 02:37:44;;;;;;;1999.90;999.90;;;;;;;;;;6153675;23;20198;-73
2023/03/29 02:40:29;;;;;;;1999.90;999.90;;;;;;;;;;6155759;23;20501;-72
2023/03/29 02:43:15;;;;;;;1999.90;999.90;;;;;;;;;;6155820;23;20518;-72
2023/03/29 02:46:01;;;;;;;1999.90;999.90;;;;;;;;;;6155866;23;20195;-72
2023/03/29 02:48:49;;;;;;;1999.90;999.90;;;;;;;;;;6155557;23;20277;-72
2023/03/29 02:51:36;;;;;;;1999.90;999.90;;;;;;;;;;6155666;23;20218;-72
2023/03/29 02:54:22;;;;;;;1999.90;999.90;;;;;;;;;;6155629;23;20167;-73
2023/03/29 02:57:07;;;;;;;1999.90;999.90;;;;;;;;;;6155642;23;20206;-72
2023/03/29 02:59:52;;;;;;;1999.90;999.90;;;;;;;;;;6155813;23;20287;-72
2023/03/29 03:02:37;;;;;;;1999.90;999.90;;;;;;;;;;6155646;23;20171;-73
2023/03/29 03:05:23;;;;;;;1999.90;999.90;;;;;;;;;;6155705;23;20171;-73
2023/03/29 03:08:10;;;;;;;1999.90;999.90;;;;;;;;;;6154362;23;20433;-73
2023/03/29 03:10:55;;;;;;;1999.90;999.90;;;;;;;;;;6155527;23;20245;-72
2023/03/29 03:13:40;;;;;;;1999.90;999.90;;;;;;;;;;6155516;23;20173;-73
2023/03/29 03:16:25;;;;;;;1999.90;999.90;;;;;;;;;;6155559;23;20325;-72
2023/03/29 03:19:10;;;;;;;1999.90;999.90;;;;;;;;;;6155333;23;20170;-72
2023/03/29 03:21:55;;;;;;;1999.90;999.90;;;;;;;;;;6154093;23;20390;-72
2023/03/29 03:24:42;;;;;;;1999.90;999.90;;;;;;;;;;6155549;23;20170;-73
2023/03/29 03:27:27;;;;;;;1999.90;999.90;;;;;;;;;;6155179;23;20226;-73
2023/03/29 03:30:12;;;;;;;1999.90;999.90;;;;;;;;;;6155286;23;20174;-72
2023/03/29 03:32:57;;;;;;;1999.90;999.90;;;;;;;;;;6155340;23;20252;-73
2023/03/29 03:35:45;;;;;;;1999.90;999.90;;;;;;;;;;6155371;23;20170;-72
2023/03/29 03:38:30;;;;;;;1999.90;999.90;;;;;;;;;;6155203;23;20163;-72
2023/03/29 03:41:16;;;;;;;1999.90;999.90;;;;;;;;;;6155224;23;20635;-72
2023/03/29 03:44:01;;;;;;;1999.90;999.90;;;;;;;;;;6155362;23;20289;-71
2023/03/29 03:46:46;;;;;;;1999.90;999.90;;;;;;;;;;6155035;23;20303;-72
2023/03/29 03:49:31;;;;;;;1999.90;999.90;;;;;;;;;;6155248;23;20194;-72
2023/03/29 03:52:16;;;;;;;1999.90;999.90;;;;;;;;;;6154777;23;20505;-72
2023/03/29 03:55:02;;;;;;;1999.90;999.90;;;;;;;;;;6153665;23;20425;-72
2023/03/29 03:57:48;;;;;;;1999.90;999.90;;;;;;;;;;6154830;23;20202;-71
2023/03/29 04:00:33;;;;;;;1999.90;999.90;;;;;;;;;;6154771;23;20647;-71
2023/03/29 04:03:18;;;;;;;1999.90;999.90;;;;;;;;;;6154933;23;20243;-72
2023/03/29 04:06:04;;;;;;;1999.90;999.90;;;;;;;;;;6154627;23;20679;-71
2023/03/29 04:08:49;;;;;;;1999.90;999.90;;;;;;;;;;6152916;23;20418;-72
2023/03/29 04:11:33;;;;;;;1999.90;999.90;;;;;;;;;;6154605;23;20182;-71
2023/03/29 04:14:20;;;;;;;1999.90;999.90;;;;;;;;;;6154863;23;20167;-72
2023/03/29 04:17:05;;;;;;;1999.90;999.90;;;;;;;;;;6154626;23;20551;-72
2023/03/29 04:19:50;;;;;;;1999.90;999.90;;;;;;;;;;6154787;23;20514;-72
2023/03/29 04:22:35;;;;;;;1999.90;999.90;;;;;;;;;;6154797;23;20170;-72
2023/03/29 04:25:21;;;;;;;1999.90;999.90;;;;;;;;;;6154759;23;20217;-72
2023/03/29 04:28:06;;;;;;;1999.90;999.90;;;;;;;;;;6154338;23;20305;-72
2023/03/29 04:30:52;;;;;;;1999.90;999.90;;;;;;;;;;6154548;23;20171;-72
2023/03/29 04:33:37;;;;;;;1999.90;999.90;;;;;;;;;;6154620;23;20175;-71
2023/03/29 04:36:22;;;;;;;1999.90;999.90;;;;;;;;;;6154464;23;20607;-72
2023/03/29 04:39:08;;;;;;;1999.90;999.90;;;;;;;;;;6154796;23;20162;-71
2023/03/29 04:41:53;;;;;;;1999.90;999.90;;;;;;;;;;6155178;23;20605;-72
2023/03/29 04:44:40;;;;;;;1999.90;999.90;;;;;;;;;;6154862;23;20624;-71
2023/03/29 04:47:28;;;;;;;1999.90;999.90;;;;;;;;;;6154609;23;20206;-72
2023/03/29 04:50:13;;;;;;;1999.90;999.90;;;;;;;;;;6154366;23;20230;-72
2023/03/29 04:52:59;;;;;;;1999.90;999.90;;;;;;;;;;6154299;23;20704;-72
2023/03/29 04:55:45;;;;;;;1999.90;999.90;;;;;;;;;;6154635;23;20169;-72
2023/03/29 04:58:30;;;;;;;1999.90;999.90;;;;;;;;;;6154458;23;20170;-72
2023/03/29 05:01:16;;;;;;;1999.90;999.90;;;;;;;;;;6154351;23;20261;-71
2023/03/29 05:04:03;;;;;;;1999.90;999.90;;;;;;;;;;6153935;23;20623;-71
2023/03/29 05:06:48;;;;;;;1999.90;999.90;;;;;;;;;;6154562;23;20210;-69
2023/03/29 05:09:34;;;;;;;1999.90;999.90;;;;;;;;;;6154664;23;20191;-72
2023/03/29 05:12:19;;;;;;;1999.90;999.90;;;;;;;;;;6154307;23;20217;-72
2023/03/29 05:15:04;;;;;;;1999.90;999.90;;;;;;;;;;6154543;23;20166;-72
2023/03/29 05:17:49;;;;;;;1999.90;999.90;;;;;;;;;;6154266;23;20273;-72
2023/03/29 05:20:36;;;;;;;1999.90;999.90;;;;;;;;;;6154184;23;20167;-72
2023/03/29 05:23:22;;;;;;;1999.90;999.90;;;;;;;;;;6154434;23;20174;-72
2023/03/29 05:26:08;;;;;;;1999.90;999.90;;;;;;;;;;6154270;23;20206;-70
2023/03/29 05:28:53;;;;;;;1999.90;999.90;;;;;;;;;;6154148;23;20194;-72
2023/03/29 05:31:38;;;;;;;1999.90;999.90;;;;;;;;;;6154181;23;20179;-72
2023/03/29 05:34:23;;;;;;;1999.90;999.90;;;;;;;;;;6154239;23;20191;-72
2023/03/29 05:37:10;;;;;;;1999.90;999.90;;;;;;;;;;6154080;23;20546;-72
2023/03/29 05:39:55;;;;;;;1999.90;999.90;;;;;;;;;;6152882;23;20374;-72
2023/03/29 05:42:40;;;;;;;1999.90;999.90;;;;;;;;;;6153849;23;20167;-71
2023/03/29 05:45:27;;;;;;;1999.90;999.90;;;;;;;;;;6154216;23;20186;-72
2023/03/29 05:48:12;;;;;;;1999.90;999.90;;;;;;;;;;6154013;23;20167;-71
2023/03/29 05:50:57;;;;;;;1999.90;999.90;;;;;;;;;;6154068;23;20724;-72
2023/03/29 05:53:45;;;;;;;1999.90;999.90;;;;;;;;;;6154157;23;20636;-72
2023/03/29 05:56:30;;;;;;;1999.90;999.90;;;;;;;;;;6154116;23;20230;-72
2023/03/29 05:59:16;;;;;;;1999.90;999.90;;;;;;;;;;6154112;23;20684;-70
2023/03/29 06:02:03;;;;;;;1999.90;999.90;;;;;;;;;;6154470;23;20175;-72
2023/03/29 06:04:48;;;;;;;1999.90;999.90;;;;;;;;;;6154113;23;20675;-71
2023/03/29 06:07:33;;;;;;;1999.90;999.90;;;;;;;;;;6153806;23;20253;-72
2023/03/29 06:10:20;;;;;;;1999.90;999.90;;;;;;;;;;6153972;23;20291;-72
2023/03/29 06:13:06;;;;;;;1999.90;999.90;;;;;;;;;;6153531;23;20378;-72
2023/03/29 06:15:51;;;;;;;1999.90;999.90;;;;;;;;;;6153576;23;20186;-72
2023/03/29 06:18:36;;;;;;;1999.90;999.90;;;;;;;;;;6153461;23;20651;-72
2023/03/29 06:21:22;;;;;;;1999.90;999.90;;;;;;;;;;6153929;23;20552;-72
2023/03/29 06:24:07;;;;;;;1999.90;999.90;;;;;;;;;;6154042;23;20501;-72
2023/03/29 06:26:53;;;;;;;1999.90;999.90;;;;;;;;;;6153233;23;20429;-71
2023/03/29 06:29:38;;;;;;;1999.90;999.90;;;;;;;;;;6154000;23;20274;-71
2023/03/29 06:32:23;;;;;;;1999.90;999.90;;;;;;;;;;6153780;23;20608;-72
2023/03/29 06:35:09;;;;;;;1999.90;999.90;;;;;;;;;;6153584;23;20167;-71
2023/03/29 06:37:55;;;;;;;1999.90;999.90;;;;;;;;;;6153784;23;20210;-72
2023/03/29 06:40:41;;;;;;;1999.90;999.90;;;;;;;;;;6154538;23;20246;-71
2023/03/29 06:43:28;;;;;;;1999.90;999.90;;;;;;;;;;6153882;23;20249;-71
2023/03/29 06:46:13;;;;;;;1999.90;999.90;;;;;;;;;;6153680;23;20758;-71
2023/03/29 06:48:58;;;;;;;1999.90;999.90;;;;;;;;;;6153423;23;20195;-71
2023/03/29 06:51:43;;;;;;;1999.90;999.90;;;;;;;;;;6153468;23;20320;-72
2023/03/29 06:54:28;;;;;;;1999.90;999.90;;;;;;;;;;6153568;23;20254;-72
2023/03/29 06:57:12;;;;;;;1999.90;999.90;;;;;;;;;;6152019;23;20214;-71
2023/03/29 06:59:59;;;;;;;1999.90;999.90;;;;;;;;;;6151664;23;20246;-72
2023/03/29 07:02:44;;;;;;;1999.90;999.90;;;;;;;;;;6151512;23;20507;-70
2023/03/29 07:05:30;;;;;;;1999.90;999.90;;;;;;;;;;6151351;23;20540;-72
2023/03/29 07:08:15;;;;;;;1999.90;999.90;;;;;;;;;;6151714;23;20215;-72
2023/03/29 07:11:00;;;;;;;1999.90;999.90;;;;;;;;;;6151421;23;20187;-72
2023/03/29 07:13:47;;;;;;;1999.90;999.90;;;;;;;;;;6151673;23;20199;-72
2023/03/29 07:16:36;;;;;;;1999.90;999.90;;;;;;;;;;6149821;23;20373;-72
2023/03/29 07:19:23;;;;;;;1999.90;999.90;;;;;;;;;;6151856;23;20167;-72
2023/03/29 07:22:08;;;;;;;1999.90;999.90;;;;;;;;;;6151454;23;20171;-72
2023/03/29 07:24:53;;;;;;;1999.90;999.90;;;;;;;;;;6152540;23;20231;-72
2023/03/29 07:27:39;;;;;;;1999.90;999.90;;;;;;;;;;6155230;23;20207;-72
2023/03/29 07:30:26;;;;;;;1999.90;999.90;;;;;;;;;;6154834;23;20314;-73
2023/03/29 07:33:13;;;;;;;1999.90;999.90;;;;;;;;;;6155081;23;20167;-72
2023/03/29 07:35:58;;;;;;;1999.90;999.90;;;;;;;;;;6155343;23;20246;-72
2023/03/29 07:38:43;;;;;;;1999.90;999.90;;;;;;;;;;6153736;23;20166;-72
2023/03/29 07:41:28;;;;;;;1999.90;999.90;;;;;;;;;;6153368;23;20186;-71
2023/03/29 07:44:13;;;;;;;1999.90;999.90;;;;;;;;;;6154637;23;20171;-71
2023/03/29 07:46:59;;;;;;;1999.90;999.90;;;;;;;;;;6153075;23;20724;-71
2023/03/29 07:49:46;;;;;;;1999.90;999.90;;;;;;;;;;6154482;23;20339;-72
2023/03/29 07:52:31;;;;;;;1999.90;999.90;;;;;;;;;;6155066;23;20211;-71
2023/03/29 07:55:16;;;;;;;1999.90;999.90;;;;;;;;;;6155284;23;20219;-72
2023/03/29 07:58:03;;;;;;;1999.90;999.90;;;;;;;;;;6155037;23;20206;-73
2023/03/29 08:00:48;;;;;;;1999.90;999.90;;;;;;;;;;6153872;23;20421;-73
2023/03/29 08:03:33;;;;;;;1999.90;999.90;;;;;;;;;;6154730;23;20591;-72
2023/03/29 08:06:20;;;;;;;1999.90;999.90;;;;;;;;;;6152475;23;20210;-72
2023/03/29 08:09:05;;;;;;;1999.90;999.90;;;;;;;;;;6152825;23;20247;-72
2023/03/29 08:11:51;;;;;;;1999.90;999.90;;;;;;;;;;6152893;23;20167;-73
2023/03/29 08:14:36;;;;;;;1999.90;999.90;;;;;;;;;;6153296;23;20255;-73
2023/03/29 08:17:21;;;;;;;1999.90;999.90;;;;;;;;;;6154808;23;20203;-72
2023/03/29 08:20:08;;;;;;;1999.90;999.90;;;;;;;;;;6154604;23;20179;-71
2023/03/29 08:22:55;;;;;;;1999.90;999.90;;;;;;;;;;6154673;23;20252;-72
2023/03/29 08:25:41;;;;;;;1999.90;999.90;;;;;;;;;;6154951;23;20501;-73
2023/03/29 08:28:26;;;;;;;1999.90;999.90;;;;;;;;;;6154629;23;20762;-72
2023/03/29 08:31:11;;;;;;;1999.90;999.90;;;;;;;;;;6153255;23;20401;-72
2023/03/29 08:33:56;;;;;;;1999.90;999.90;;;;;;;;;;6154565;23;20172;-72
2023/03/29 08:36:42;;;;;;;1999.90;999.90;;;;;;;;;;6154281;23;20203;-72
2023/03/29 08:39:28;;;;;;;1999.90;999.90;;;;;;;;;;6154088;23;20674;-72
2023/03/29 08:42:25;;;;;;;1999.90;999.90;;;;;;;;;;6154337;23;20183;-72
2023/03/29 08:45:14;;;;;;;1999.90;999.90;;;;;;;;;;6153637;23;20718;-72
2023/03/29 08:48:02;;;;;;;1999.90;999.90;;;;;;;;;;6154511;23;20241;-72
2023/03/29 08:50:51;;;;;;;1999.90;999.90;;;;;;;;;;6154091;23;20197;-73
2023/03/29 08:53:39;;;;;;;1999.90;999.90;;;;;;;;;;6154670;23;20234;-72
2023/03/29 08:56:27;;;;;;;1999.90;999.90;;;;;;;;;;6154580;23;20543;-73
2023/03/29 08:59:17;;;;;;;1999.90;999.90;;;;;;;;;;6154431;23;20168;-72
2023/03/29 09:02:03;;;;;;;1999.90;999.90;;;;;;;;;;6154381;23;20169;-72
2023/03/29 09:04:51;;;;;;;1999.90;999.90;;;;;;;;;;6154609;23;20190;-72
2023/03/29 09:07:36;;;;;;;1999.90;999.90;;;;;;;;;;6154171;23;20736;-72
2023/03/29 09:10:26;;;;;;;1999.90;999.90;;;;;;;;;;6154252;23;20196;-73
2023/03/29 09:13:19;;;;;;;1999.90;999.90;;;;;;;;;;6154422;23;20509;-72
2023/03/29 09:16:06;;;;;;;1999.90;999.90;;;;;;;;;;6154347;23;20253;-73
2023/03/29 09:18:56;;;;;;;1999.90;999.90;;;;;;;;;;6154366;23;20223;-72
2023/03/29 09:21:45;;;;;;;1999.90;999.90;;;;;;;;;;6153874;23;20234;-72
2023/03/29 09:24:38;;;;;;;1999.90;999.90;;;;;;;;;;6154157;23;20185;-72
2023/03/29 09:27:26;;;;;;;1999.90;999.90;;;;;;;;;;6153842;23;20711;-72
2023/03/29 09:30:20;;;;;;;1999.90;999.90;;;;;;;;;;6153298;23;20724;-72
2023/03/29 09:33:09;;;;;;;1999.90;999.90;;;;;;;;;;6153515;23;20226;-73
2023/03/29 09:35:58;;;;;;;1999.90;999.90;;;;;;;;;;6151846;23;20278;-73
2023/03/29 09:38:44;;;;;;;1999.90;999.90;;;;;;;;;;6153991;23;20193;-72
2023/03/29 09:41:32;;;;;;;1999.90;999.90;;;;;;;;;;6153784;23;20217;-72
2023/03/29 09:44:20;;;;;;;1999.90;999.90;;;;;;;;;;6153957;23;20262;-72
2023/03/29 09:47:09;;;;;;;1999.90;999.90;;;;;;;;;;6154022;23;20253;-71
2023/03/29 09:49:55;;;;;;;1999.90;999.90;;;;;;;;;;6153969;23;20210;-72
2023/03/29 09:52:41;;;;;;;1999.90;999.90;;;;;;;;;;6154175;23;20250;-72
2023/03/29 09:55:27;;;;;;;1999.90;999.90;;;;;;;;;;6153735;23;20189;-72
2023/03/29 09:58:13;;;;;;;1999.90;999.90;;;;;;;;;;6154050;23;20268;-73
2023/03/29 10:00:59;;;;;;;1999.90;999.90;;;;;;;;;;6153640;23;20652;-72
2023/03/29 10:03:50;;;;;;;1999.90;999.90;;;;;;;;;;6153924;23;20191;-73
2023/03/29 10:06:35;;;;;;;1999.90;999.90;;;;;;;;;;6153534;23;20290;-73
2023/03/29 10:09:21;;;;;;;1999.90;999.90;;;;;;;;;;6153810;23;20170;-73
2023/03/29 10:12:06;;;;;;;1999.90;999.90;;;;;;;;;;6153585;23;20295;-72
2023/03/29 10:14:53;;;;;;;1999.90;999.90;;;;;;;;;;6153904;23;20174;-73
2023/03/29 10:17:40;;;;;;;1999.90;999.90;;;;;;;;;;6153592;23;20210;-72
2023/03/29 10:20:26;;;;;;;1999.90;999.90;;;;;;;;;;6153641;23;20504;-72
2023/03/29 10:23:17;;;;;;;1999.90;999.90;;;;;;;;;;6153778;23;20170;-72
2023/03/29 10:26:03;;;;;;;1999.90;999.90;;;;;;;;;;6154254;23;20212;-76
2023/03/29 10:28:50;;;;;;;1999.90;999.90;;;;;;;;;;6153286;23;20175;-73
2023/03/29 10:31:40;;;;;;;1999.90;999.90;;;;;;;;;;6153757;23;20270;-73
2023/03/29 10:34:26;;;;;;;1999.90;999.90;;;;;;;;;;6153143;23;20171;-72
2023/03/29 10:37:15;;;;;;;1999.90;999.90;;;;;;;;;;6153206;23;20730;-73
2023/03/29 10:40:00;;;;;;;1999.90;999.90;;;;;;;;;;6154017;23;20612;-74
2023/03/29 10:42:46;;;;;;;1999.90;999.90;;;;;;;;;;6153701;23;20217;-74
2023/03/29 10:45:34;;;;;;;1999.90;999.90;;;;;;;;;;6153623;23;20190;-73
2023/03/29 10:48:24;;;;;;;1999.90;999.90;;;;;;;;;;6153705;23;20286;-73
2023/03/29 10:51:13;;;;;;;1999.90;999.90;;;;;;;;;;6153177;23;20199;-73
2023/03/29 10:54:00;;;;;;;1999.90;999.90;;;;;;;;;;6153146;23;20250;-75
2023/03/29 10:56:47;;;;;;;1999.90;999.90;;;;;;;;;;6153796;23;20257;-74
2023/03/29 10:59:37;;;;;;;1999.90;999.90;;;;;;;;;;6153956;23;20791;-74
2023/03/29 11:02:40;;;;;;;1999.90;999.90;;;;;;;;;;6153435;23;20454;-75
2023/03/29 11:05:30;;;;;;;1999.90;999.90;;;;;;;;;;6155561;23;20243;-75
2023/03/29 11:08:25;;;;;;;1999.90;999.90;;;;;;;;;;6155239;23;20167;-74
2023/03/29 11:11:16;;;;;;;1999.90;999.90;;;;;;;;;;6155051;23;20191;-74
2023/03/29 11:14:05;;;;;;;1999.90;999.90;;;;;;;;;;6155347;23;20215;-74
2023/03/29 11:16:57;;;;;;;1999.90;999.90;;;;;;;;;;6155567;23;20679;-74
2023/03/29 11:19:56;;;;;;;1999.90;999.90;;;;;;;;;;6155278;23;20170;-74
2023/03/29 11:22:45;;;;;;;1999.90;999.90;;;;;;;;;;6155415;23;20728;-73
2023/03/29 11:25:34;;;;;;;1999.90;999.90;;;;;;;;;;6154905;23;20179;-74
2023/03/29 11:28:24;;;;;;;1999.90;999.90;;;;;;;;;;6155372;23;20167;-74
2023/03/29 11:31:13;;;;;;;1999.90;999.90;;;;;;;;;;6155091;23;20412;-74
2023/03/29 11:34:04;;;;;;;1999.90;999.90;;;;;;;;;;6155456;23;20167;-73
2023/03/29 11:36:52;;;;;;;1999.90;999.90;;;;;;;;;;6155371;23;20207;-74
2023/03/29 11:39:42;;;;;;;1999.90;999.90;;;;;;;;;;6155467;23;20664;-73
2023/03/29 11:42:30;;;;;;;1999.90;999.90;;;;;;;;;;6155194;23;20636;-74
2023/03/29 11:45:20;;;;;;;1999.90;999.90;;;;;;;;;;6155366;23;20170;-74
2023/03/29 11:48:06;;;;;;;1999.90;999.90;;;;;;;;;;6155131;23;20323;-74
2023/03/29 11:50:54;;;;;;;1999.90;999.90;;;;;;;;;;6155050;23;20234;-73
2023/03/29 11:53:44;;;;;;;1999.90;999.90;;;;;;;;;;6155281;23;20246;-73
2023/03/29 11:56:33;;;;;;;1999.90;999.90;;;;;;;;;;6155451;23;20203;-73
2023/03/29 11:59:22;;;;;;;1999.90;999.90;;;;;;;;;;6155144;23;20216;-73
2023/03/29 12:02:12;;;;;;;1999.90;999.90;;;;;;;;;;6155033;23;20167;-74
2023/03/29 12:04:59;;;;;;;1999.90;999.90;;;;;;;;;;6155178;23;20170;-73
2023/03/29 12:07:48;;;;;;;1999.90;999.90;;;;;;;;;;6154886;23;20683;-74
2023/03/29 12:10:35;;;;;;;1999.90;999.90;;;;;;;;;;6154816;23;20190;-74
2023/03/29 12:13:22;;;;;;;1999.90;999.90;;;;;;;;;;6155207;23;20513;-74
2023/03/29 12:16:12;;;;;;;1999.90;999.90;;;;;;;;;;6154788;23;20385;-73
2023/03/29 12:19:02;;;;;;;1999.90;999.90;;;;;;;;;;6155118;23;20603;-74
2023/03/29 12:21:47;;;;;;;1999.90;999.90;;;;;;;;;;6154938;23;20170;-74
2023/03/29 12:24:34;;;;;;;1999.90;999.90;;;;;;;;;;6154994;23;20167;-74
2023/03/29 12:27:24;;;;;;;1999.90;999.90;;;;;;;;;;6154965;23;20206;-74
2023/03/29 12:30:19;;;;;;;1999.90;999.90;;;;;;;;;;6153975;23;20427;-73
2023/03/29 12:33:10;;;;;;;1999.90;999.90;;;;;;;;;;6155490;23;20172;-73
2023/03/29 12:36:05;;;;;;;1999.90;999.90;;;;;;;;;;6154995;23;20255;-74
2023/03/29 12:38:51;;;;;;;1999.90;999.90;;;;;;;;;;6154881;23;20167;-74
2023/03/29 12:41:37;;;;;;;1999.90;999.90;;;;;;;;;;6154880;23;20167;-74
2023/03/29 12:44:23;;;;;;;1999.90;999.90;;;;;;;;;;6154866;23;20675;-74
2023/03/29 12:47:17;;;;;;;1999.90;999.90;;;;;;;;;;6154956;23;20536;-73
2023/03/29 12:50:03;;;;;;;1999.90;999.90;;;;;;;;;;6154914;23;20171;-74
2023/03/29 12:52:50;;;;;;;1999.90;999.90;;;;;;;;;;6155110;23;20287;-73
2023/03/29 12:55:46;;;;;;;1999.90;999.90;;;;;;;;;;6154824;23;20631;-74
2023/03/29 12:58:43;;;;;;;1999.90;999.90;;;;;;;;;;6154863;23;20599;-73
2023/03/29 13:01:29;;;;;;;1999.90;999.90;;;;;;;;;;6154407;23;20795;-74
2023/03/29 13:04:17;;;;;;;1999.90;999.90;;;;;;;;;;6155192;23;20472;-74
2023/03/29 13:07:02;;;;;;;1999.90;999.90;;;;;;;;;;6154363;23;20257;-73
2023/03/29 13:09:50;;;;;;;1999.90;999.90;;;;;;;;;;6155174;23;20573;-74
2023/03/29 13:12:36;;;;;;;1999.90;999.90;;;;;;;;;;6154760;23;20250;-73
2023/03/29 13:15:23;;;;;;;1999.90;999.90;;;;;;;;;;6153977;23;20465;-74
2023/03/29 13:18:14;;;;;;;1999.90;999.90;;;;;;;;;;6154679;23;20171;-74
2023/03/29 13:21:03;;;;;;;1999.90;999.90;;;;;;;;;;6154587;23;20291;-73
2023/03/29 13:23:51;;;;;;;1999.90;999.90;;;;;;;;;;6154103;23;20170;-74
2023/03/29 13:26:52;;;;;;;1999.90;999.90;;;;;;;;;;6154490;23;20207;-74
2023/03/29 13:29:48;;;;;;;1999.90;999.90;;;;;;;;;;6154592;23;20171;-74
2023/03/29 13:32:40;;;;;;;1999.90;999.90;;;;;;;;;;6154548;23;20250;-73
2023/03/29 13:35:30;;;;;;;1999.90;999.90;;;;;;;;;;6154685;23;20257;-74
2023/03/29 13:38:19;;;;;;;1999.90;999.90;;;;;;;;;;6154365;23;20301;-73
2023/03/29 13:41:04;;;;;;;1999.90;999.90;;;;;;;;;;6154447;23;20166;-74
2023/03/29 13:43:52;;;;;;;1999.90;999.90;;;;;;;;;;6154537;23;20223;-74
2023/03/29 13:46:39;;;;;;;1999.90;999.90;;;;;;;;;;6154348;23;20206;-74
2023/03/29 13:49:25;;;;;;;1999.90;999.90;;;;;;;;;;6154497;23;20656;-74
2023/03/29 13:52:14;;;;;;;1999.90;999.90;;;;;;;;;;6154116;23;20527;-74
2023/03/29 13:55:01;;;;;;;1999.90;999.90;;;;;;;;;;6154410;23;20174;-74
2023/03/29 13:57:51;;;;;;;1999.90;999.90;;;;;;;;;;6154117;23;20381;-74
2023/03/29 14:00:39;;;;;;;1999.90;999.90;;;;;;;;;;6154130;23;20513;-73
2023/03/29 14:03:28;;;;;;;1999.90;999.90;;;;;;;;;;6154296;23;20171;-74
2023/03/29 14:06:15;;;;;;;1999.90;999.90;;;;;;;;;;6154221;23;20214;-74
2023/03/29 14:09:03;;;;;;;1999.90;999.90;;;;;;;;;;6154152;23;20255;-74
2023/03/29 14:11:48;;;;;;;1999.90;999.90;;;;;;;;;;6154087;23;20190;-74
2023/03/29 14:14:33;;;;;;;1999.90;999.90;;;;;;;;;;6154536;23;20166;-74
2023/03/29 14:17:21;;;;;;;1999.90;999.90;;;;;;;;;;6154284;23;20206;-73
2023/03/29 14:20:08;;;;;;;1999.90;999.90;;;;;;;;;;6154131;23;20210;-73
2023/03/29 14:22:54;;;;;;;1999.90;999.90;;;;;;;;;;6153772;23;20163;-74
2023/03/29 14:25:39;;;;;;;1999.90;999.90;;;;;;;;;;6152815;23;20215;-75
2023/03/29 14:28:25;;;;;;;1999.90;999.90;;;;;;;;;;6154223;23;20170;-74
2023/03/29 14:31:16;;;;;;;1999.90;999.90;;;;;;;;;;6153224;23;20409;-75
2023/03/29 14:34:03;;;;;;;1999.90;999.90;;;;;;;;;;6154890;23;20366;-74
2023/03/29 14:36:48;;;;;;;1999.90;999.90;;;;;;;;;;6156569;23;20202;-74
2023/03/29 14:39:34;;;;;;;1999.90;999.90;;;;;;;;;;6156269;23;20171;-74
2023/03/29 14:42:20;;;;;;;1999.90;999.90;;;;;;;;;;6156274;23;20504;-74
2023/03/29 14:45:08;;;;;;;1999.90;999.90;;;;;;;;;;6155941;23;20167;-74
2023/03/29 14:47:53;;;;;;;1999.90;999.90;;;;;;;;;;6155775;23;20281;-75
2023/03/29 14:50:39;;;;;;;1999.90;999.90;;;;;;;;;;6155750;23;20640;-73
2023/03/29 14:53:27;;;;;;;1999.90;999.90;;;;;;;;;;6155869;23;20171;-74
2023/03/29 14:56:14;;;;;;;1999.90;999.90;;;;;;;;;;6155917;23;20210;-74
2023/03/29 14:59:03;;;;;;;1999.90;999.90;;;;;;;;;;6155988;23;20170;-74
2023/03/29 15:01:48;;;;;;;1999.90;999.90;;;;;;;;;;6155534;23;20276;-75
2023/03/29 15:04:34;;;;;;;1999.90;999.90;;;;;;;;;;6155714;23;20167;-74
2023/03/29 15:07:23;;;;;;;1999.90;999.90;;;;;;;;;;6155029;23;20213;-74
2023/03/29 15:10:16;;;;;;;1999.90;999.90;;;;;;;;;;6155140;23;20171;-75
2023/03/29 15:13:01;;;;;;;1999.90;999.90;;;;;;;;;;6155698;23;20246;-74
2023/03/29 15:15:50;;;;;;;1999.90;999.90;;;;;;;;;;6155693;23;20171;-74
2023/03/29 15:18:38;;;;;;;1999.90;999.90;;;;;;;;;;6155459;23;20171;-73
2023/03/29 15:21:31;;;;;;;1999.90;999.90;;;;;;;;;;6155580;23;20203;-73
2023/03/29 15:24:21;;;;;;;1999.90;999.90;;;;;;;;;;6155796;23;20170;-74
2023/03/29 15:27:13;;;;;;;1999.90;999.90;;;;;;;;;;6154346;23;20206;-74
2023/03/29 15:30:02;;;;;;;1999.90;999.90;;;;;;;;;;6154929;23;20433;-74
2023/03/29 15:32:47;;;;;;;1999.90;999.90;;;;;;;;;;6154912;23;20190;-74
2023/03/29 15:35:32;;;;;;;1999.90;999.90;;;;;;;;;;6154987;23;20300;-73
2023/03/29 15:38:17;;;;;;;1999.90;999.90;;;;;;;;;;6155450;23;20167;-73